Alabaster, Alabama
Current Conditions -  °F | °C
As of 1:53 PM on Friday 24 Oct 2014 (Local Time) from KEET Reporting Station
Clear Clear  
Wind Chill: 23°   Ceiling: Unl
Heat Index: 23°   Visibility: 10mi
Dew Point:   Wind: 3mph
Humidity: 29%   Direction: NA
Pressure: 30.04"   Gusts: NA
Location:  33.25°N, 86.82°W
Report Text: KEET 241853Z AUTO VRB03KT 10SM CLR 23/04 A3004 RMK AO2 SLP170 T02330044
Loading
Personal Weather Stations






























Interactive Weather Map
Tropical Storm Tracking
New forecast layout! Learn more

10-Day Weather Forecast

Advertisements
Track Severe Weather on mobile